createdAt,value
2018-05-01T00:01:12.749Z,96.40
2018-05-01T00:03:40.280Z,96.20
2018-05-01T00:06:07.852Z,96.20
2018-05-01T00:08:35.384Z,96.20
2018-05-01T00:11:02.911Z,96.30
2018-05-01T00:13:31.244Z,96.30
2018-05-01T00:15:58.769Z,96.20
2018-05-01T00:18:27.096Z,96.00
2018-05-01T00:20:55.428Z,96.00
2018-05-01T00:23:22.958Z,96.00
2018-05-01T00:25:50.480Z,96.10
2018-05-01T00:28:18.048Z,96.00
2018-05-01T00:30:45.583Z,95.90
2018-05-01T00:33:13.113Z,96.10
2018-05-01T00:35:40.680Z,95.80
2018-05-01T00:38:08.968Z,95.80
2018-05-01T00:40:37.252Z,95.80
2018-05-01T00:43:05.666Z,95.70
2018-05-01T00:45:33.160Z,95.70
2018-05-01T00:48:00.691Z,95.40
2018-05-01T00:50:28.269Z,95.60
2018-05-01T00:52:55.799Z,95.10
2018-05-01T00:55:23.328Z,94.60
2018-05-01T00:57:51.001Z,94.80
2018-05-01T01:00:18.530Z,95.10
2018-05-01T01:02:46.813Z,94.70
2018-05-01T01:05:15.164Z,94.40
2018-05-01T01:07:42.705Z,94.40
2018-05-01T01:10:10.243Z,94.30
2018-05-01T01:12:37.808Z,93.20
2018-05-01T01:15:05.346Z,93.10
2018-05-01T01:17:32.904Z,93.30
2018-05-01T01:20:00.469Z,93.40
2018-05-01T01:22:28.048Z,93.80
2018-05-01T01:24:56.357Z,96.50
2018-05-01T01:27:24.018Z,96.50
2018-05-01T01:29:51.551Z,97.20
2018-05-01T01:32:20.762Z,97.80
2018-05-01T01:34:48.345Z,97.80
2018-05-01T01:37:15.393Z,98.10
2018-05-01T01:39:42.438Z,97.80
2018-05-01T01:42:10.293Z,98.40
2018-05-01T01:44:37.336Z,98.10
2018-05-01T01:47:04.374Z,97.90
2018-05-01T01:49:31.470Z,98.00
2018-05-01T01:51:58.516Z,98.10
2018-05-01T01:54:25.569Z,98.00
2018-05-01T01:56:52.699Z,98.00
2018-05-01T01:59:20.699Z,98.20
2018-05-01T02:01:47.744Z,97.90
2018-05-01T02:04:14.824Z,97.50
2018-05-01T02:06:41.869Z,97.80
2018-05-01T02:09:08.931Z,97.80
2018-05-01T02:11:36.032Z,97.80
2018-05-01T02:14:03.069Z,97.70
2018-05-01T02:16:30.105Z,97.70
2018-05-01T02:18:57.198Z,97.10
2018-05-01T02:21:24.244Z,97.10
2018-05-01T02:23:51.276Z,97.00
2018-05-01T02:26:18.361Z,97.10
2018-05-01T02:28:45.398Z,97.10
2018-05-01T02:31:12.432Z,96.40
2018-05-01T02:33:40.286Z,96.70
2018-05-01T02:36:07.321Z,96.70
2018-05-01T02:38:34.373Z,96.40
2018-05-01T02:41:01.444Z,95.80
2018-05-01T02:43:28.494Z,95.80
2018-05-01T02:45:55.549Z,95.00
2018-05-01T02:48:22.655Z,95.20
2018-05-01T02:50:50.097Z,95.40
2018-05-01T02:53:17.143Z,95.50
2018-05-01T02:55:44.413Z,95.10
2018-05-01T02:58:11.561Z,95.20
2018-05-01T03:00:38.707Z,95.30
2018-05-01T03:03:05.962Z,95.10
2018-05-01T03:05:33.095Z,95.00
2018-05-01T03:08:01.019Z,95.40
2018-05-01T03:10:28.211Z,95.40
2018-05-01T03:12:55.363Z,94.90
2018-05-01T03:15:22.496Z,95.20
2018-05-01T03:17:50.336Z,95.80
2018-05-01T03:20:18.242Z,95.70
2018-05-01T03:22:45.372Z,95.70
2018-05-01T03:25:13.310Z,95.40
2018-05-01T03:27:40.456Z,95.80
2018-05-01T03:30:07.573Z,95.90
2018-05-01T03:32:35.578Z,96.30
2018-05-01T03:35:02.850Z,96.30
2018-05-01T03:37:29.973Z,96.10
2018-05-01T03:39:57.178Z,96.40
2018-05-01T03:42:24.348Z,96.40
2018-05-01T03:44:51.479Z,96.60
2018-05-01T03:47:20.321Z,96.60
2018-05-01T03:49:47.445Z,96.60
2018-05-01T03:52:14.569Z,96.70
2018-05-01T03:54:41.726Z,96.90
2018-05-01T03:57:08.860Z,97.20
2018-05-01T03:59:35.982Z,97.50
2018-05-01T04:02:03.934Z,97.90
2018-05-01T04:04:31.066Z,97.90
2018-05-01T04:06:58.202Z,97.70
2018-05-01T04:09:25.382Z,98.10
2018-05-01T04:11:52.510Z,98.20
2018-05-01T04:14:21.317Z,98.70
2018-05-01T04:16:48.492Z,98.70
2018-05-01T04:19:15.676Z,98.50
2018-05-01T04:21:42.809Z,98.90
2018-05-01T04:24:09.995Z,99.10
2018-05-01T04:26:37.125Z,99.70
2018-05-01T04:29:04.258Z,99.70
2018-05-01T04:31:31.431Z,99.80
2018-05-01T04:33:59.325Z,99.90
2018-05-01T04:36:27.227Z,99.90
2018-05-01T04:38:54.394Z,99.90
2018-05-01T04:41:21.762Z,99.90
2018-05-01T04:43:48.880Z,99.90
2018-05-01T04:46:16.808Z,99.90
2018-05-01T04:48:43.931Z,99.90
2018-05-01T04:51:11.809Z,99.90
2018-05-01T04:53:39.750Z,99.90
2018-05-01T04:56:06.897Z,99.90
2018-05-01T04:58:34.089Z,99.90
2018-05-01T05:01:01.245Z,99.90
2018-05-01T05:03:28.375Z,99.90
2018-05-01T05:05:55.499Z,99.90
2018-05-01T05:08:23.545Z,99.90
2018-05-01T05:10:50.776Z,99.90
2018-05-01T05:13:17.893Z,99.90
2018-05-01T05:15:45.833Z,99.90
2018-05-01T05:18:12.967Z,99.90
2018-05-01T05:20:40.103Z,99.90
2018-05-01T05:23:08.029Z,99.90
2018-05-01T05:25:35.153Z,99.90
2018-05-01T05:28:02.289Z,99.90
2018-05-01T05:30:29.450Z,99.90
2018-05-01T05:32:56.573Z,99.90
2018-05-01T05:35:23.689Z,99.90
2018-05-01T05:37:51.728Z,99.90
2018-05-01T05:40:18.862Z,99.90
2018-05-01T05:42:46.072Z,99.90
2018-05-01T05:45:13.193Z,99.90
2018-05-01T05:47:40.305Z,99.90
2018-05-01T05:50:08.186Z,99.90
2018-05-01T05:52:36.297Z,99.90
2018-05-01T05:55:03.439Z,99.90
2018-05-01T05:57:31.334Z,99.90
2018-05-01T05:59:58.497Z,99.90
2018-05-01T06:02:25.629Z,99.90
2018-05-01T06:04:53.542Z,99.90
2018-05-01T06:07:21.866Z,99.90
2018-05-01T06:09:49.081Z,99.90
2018-05-01T06:12:16.206Z,99.90
2018-05-01T06:14:44.137Z,99.90
2018-05-01T06:17:11.256Z,99.90
2018-05-01T06:19:38.393Z,99.90
2018-05-01T06:22:05.678Z,99.90
2018-05-01T06:24:32.877Z,99.90
2018-05-01T06:27:00.010Z,99.90
2018-05-01T06:29:27.177Z,99.90
2018-05-01T06:31:55.085Z,99.90
2018-05-01T06:34:22.209Z,99.90
2018-05-01T06:36:49.429Z,99.90
2018-05-01T06:39:16.606Z,99.90
2018-05-01T06:41:43.727Z,99.90
2018-05-01T06:44:10.891Z,99.90
2018-05-01T06:46:38.013Z,99.90
2018-05-01T06:49:05.146Z,99.90
2018-05-01T06:51:32.330Z,99.90
2018-05-01T06:53:59.529Z,99.90
2018-05-01T06:56:26.717Z,99.90
2018-05-01T06:58:53.887Z,99.90
2018-05-01T07:01:22.064Z,99.90
2018-05-01T07:03:49.178Z,99.90
2018-05-01T07:06:17.113Z,99.90
2018-05-01T07:08:44.268Z,99.90
2018-05-01T07:11:11.389Z,99.90
2018-05-01T07:13:39.390Z,99.90
2018-05-01T07:16:06.577Z,99.90
2018-05-01T07:18:33.696Z,99.90
2018-05-01T07:21:01.710Z,99.90
2018-05-01T07:23:28.997Z,99.90
2018-05-01T07:25:56.345Z,99.90
2018-05-01T07:28:23.517Z,99.90
2018-05-01T07:30:50.668Z,99.90
2018-05-01T07:33:17.809Z,99.90
2018-05-01T07:35:45.073Z,99.90
2018-05-01T07:38:12.205Z,99.90
2018-05-01T07:40:40.109Z,99.90
2018-05-01T07:43:07.389Z,99.90
2018-05-01T07:45:34.556Z,99.90
2018-05-01T07:48:01.739Z,99.90
2018-05-01T07:50:28.985Z,99.90
2018-05-01T07:52:57.665Z,99.90
2018-05-01T07:55:25.615Z,99.90
2018-05-01T07:57:53.655Z,99.90
2018-05-01T08:00:22.571Z,99.90
2018-05-01T08:02:49.762Z,99.90
2018-05-01T08:05:17.710Z,99.90
2018-05-01T08:07:44.842Z,99.90
2018-05-01T08:10:12.039Z,99.90
2018-05-01T08:12:39.373Z,99.90
2018-05-01T08:15:06.574Z,99.90
2018-05-01T08:17:33.805Z,99.90
2018-05-01T08:20:01.068Z,99.90
2018-05-01T08:22:28.201Z,99.90
2018-05-01T08:24:56.093Z,99.90
2018-05-01T08:27:24.054Z,99.90
2018-05-01T08:29:52.171Z,99.90
2018-05-01T08:32:19.303Z,99.90
2018-05-01T08:34:47.238Z,99.90
2018-05-01T08:37:14.362Z,99.90
2018-05-01T08:39:41.485Z,99.90
2018-05-01T08:42:08.706Z,99.90
2018-05-01T08:44:35.874Z,99.90
2018-05-01T08:47:03.001Z,99.90
2018-05-01T08:49:31.010Z,99.90
2018-05-01T08:51:58.138Z,99.90
2018-05-01T08:54:26.021Z,99.90
2018-05-01T08:56:53.193Z,99.90
2018-05-01T08:59:20.381Z,99.90
2018-05-01T09:01:47.527Z,99.90
2018-05-01T09:04:14.766Z,99.90
2018-05-01T09:06:41.988Z,99.90
2018-05-01T09:09:09.113Z,99.90
2018-05-01T09:11:36.276Z,99.90
2018-05-01T09:14:03.401Z,99.90
2018-05-01T09:16:31.311Z,99.90
2018-05-01T09:18:58.501Z,99.90
2018-05-01T09:21:25.630Z,99.90
2018-05-01T09:23:52.759Z,99.90
2018-05-01T09:26:19.975Z,99.90
2018-05-01T09:28:47.098Z,99.90
2018-05-01T09:31:15.000Z,99.90
2018-05-01T09:33:42.393Z,99.90
2018-05-01T09:36:10.360Z,99.90
2018-05-01T09:38:37.522Z,99.90
2018-05-01T09:41:04.714Z,99.90
2018-05-01T09:43:31.902Z,99.90
2018-05-01T09:45:59.115Z,99.90
2018-05-01T09:48:26.297Z,99.90
2018-05-01T09:50:53.632Z,99.90
2018-05-01T09:53:21.420Z,99.90
2018-05-01T09:55:49.066Z,99.90
2018-05-01T09:58:16.766Z,99.90
2018-05-01T10:00:44.421Z,99.90
2018-05-01T10:03:12.323Z,99.90
2018-05-01T10:05:39.990Z,99.90
2018-05-01T10:08:07.604Z,99.90
2018-05-01T10:10:35.274Z,99.90
2018-05-01T10:13:02.908Z,99.90
2018-05-01T10:15:30.526Z,99.90
2018-05-01T10:17:58.198Z,99.90
2018-05-01T10:20:25.833Z,99.90
2018-05-01T10:22:53.470Z,99.90
2018-05-01T10:25:21.154Z,99.90
2018-05-01T10:27:48.981Z,99.90
2018-05-01T10:30:16.627Z,99.90
2018-05-01T10:32:44.282Z,99.90
2018-05-01T10:35:11.906Z,99.90
2018-05-01T10:37:39.516Z,99.90
2018-05-01T10:40:08.058Z,99.90
2018-05-01T10:42:35.678Z,99.90
2018-05-01T10:45:04.108Z,99.90
2018-05-01T10:47:31.788Z,99.90
2018-05-01T10:49:59.417Z,99.90
2018-05-01T10:52:27.113Z,99.90
2018-05-01T10:54:54.774Z,99.90
2018-05-01T10:57:23.149Z,99.90
2018-05-01T10:59:51.532Z,99.90
2018-05-01T11:02:19.289Z,99.90
2018-05-01T11:04:46.897Z,99.90
2018-05-01T11:07:15.278Z,99.90
2018-05-01T11:09:44.849Z,99.90
2018-05-01T11:12:13.312Z,99.90
2018-05-01T11:14:41.112Z,99.90
2018-05-01T11:17:08.818Z,99.90
2018-05-01T11:19:36.471Z,99.90
2018-05-01T11:22:04.113Z,99.90
2018-05-01T11:24:31.853Z,99.90
2018-05-01T11:27:00.391Z,99.90
2018-05-01T11:29:28.001Z,99.90
2018-05-01T11:31:55.742Z,99.90
2018-05-01T11:34:23.404Z,99.90
2018-05-01T11:36:51.014Z,99.90
2018-05-01T11:39:18.670Z,99.90
2018-05-01T11:41:46.281Z,99.90
2018-05-01T11:44:14.685Z,99.90
2018-05-01T11:46:43.295Z,99.90
2018-05-01T11:49:10.918Z,99.90
2018-05-01T11:51:38.535Z,99.90
2018-05-01T11:54:06.959Z,99.90
2018-05-01T11:56:34.579Z,99.90
2018-05-01T11:59:02.188Z,99.90
2018-05-01T12:01:29.853Z,99.90
2018-05-01T12:03:58.239Z,99.90
2018-05-01T12:06:26.617Z,99.90
2018-05-01T12:08:54.269Z,99.90
2018-05-01T12:11:21.912Z,99.90
2018-05-01T12:13:49.536Z,99.90
2018-05-01T12:16:17.970Z,99.90
2018-05-01T12:18:45.585Z,99.90
2018-05-01T12:21:13.210Z,99.90
2018-05-01T12:23:40.938Z,99.90
2018-05-01T12:26:08.510Z,99.90
2018-05-01T12:28:36.122Z,99.90
2018-05-01T12:31:03.780Z,99.90
2018-05-01T12:33:32.161Z,99.90
2018-05-01T12:36:01.477Z,99.90
2018-05-01T12:38:29.897Z,99.90
2018-05-01T12:40:57.518Z,99.90
2018-05-01T12:43:25.125Z,99.90
2018-05-01T12:45:53.542Z,99.90
2018-05-01T12:48:21.214Z,99.90
2018-05-01T12:50:48.820Z,99.90
2018-05-01T12:53:16.653Z,99.90
2018-05-01T12:55:44.272Z,99.90
2018-05-01T12:58:11.890Z,99.90
2018-05-01T13:00:40.398Z,99.90
2018-05-01T13:03:08.052Z,99.90
2018-05-01T13:05:35.680Z,99.90
2018-05-01T13:08:03.606Z,99.90
2018-05-01T13:10:31.475Z,99.90
2018-05-01T13:12:59.877Z,99.90
2018-05-01T13:15:27.598Z,99.90
2018-05-01T13:20:29.415Z,99.90
2018-05-01T13:22:56.988Z,99.90
2018-05-01T13:25:24.641Z,99.90
2018-05-01T13:27:52.665Z,99.90
2018-05-01T13:30:20.889Z,99.90
2018-05-01T13:32:48.617Z,99.90
2018-05-01T13:35:17.174Z,99.90
2018-05-01T13:37:44.847Z,99.90
2018-05-01T13:40:12.551Z,99.90
2018-05-01T13:42:40.405Z,99.90
2018-05-01T13:45:08.053Z,99.90
2018-05-01T13:47:35.782Z,99.90
2018-05-01T13:50:04.781Z,99.90
2018-05-01T13:52:32.400Z,99.90
2018-05-01T13:55:00.021Z,99.90
2018-05-01T13:57:27.732Z,99.90
2018-05-01T13:59:56.254Z,99.90
2018-05-01T14:02:23.875Z,99.90
2018-05-01T14:04:51.533Z,99.90
2018-05-01T14:07:19.149Z,99.90
2018-05-01T14:09:46.772Z,99.90
2018-05-01T14:12:14.978Z,99.90
2018-05-01T14:14:44.113Z,99.90
2018-05-01T14:17:11.730Z,99.90
2018-05-01T14:19:39.397Z,99.90
2018-05-01T14:22:07.012Z,99.90
2018-05-01T14:24:35.394Z,99.90
2018-05-01T14:27:03.049Z,99.90
2018-05-01T14:29:32.737Z,99.90
2018-05-01T14:32:00.415Z,99.90
2018-05-01T14:34:28.340Z,99.90
2018-05-01T14:36:55.958Z,99.90
2018-05-01T14:39:24.169Z,99.90
2018-05-01T14:41:51.936Z,99.90
2018-05-01T14:44:19.578Z,99.90
2018-05-01T14:46:47.282Z,99.90
2018-05-01T14:49:14.934Z,99.90
2018-05-01T14:51:42.553Z,99.90
2018-05-01T14:54:10.163Z,99.90
2018-05-01T14:56:38.599Z,99.90
2018-05-01T14:59:06.233Z,99.90
2018-05-01T15:01:34.675Z,99.90
2018-05-01T15:04:02.429Z,99.90
2018-05-01T15:06:30.040Z,99.90
2018-05-01T15:08:57.741Z,99.90
2018-05-01T15:11:25.468Z,99.90
2018-05-01T15:13:54.017Z,99.90
2018-05-01T15:16:21.734Z,99.90
2018-05-01T15:18:49.388Z,99.90
2018-05-01T15:21:17.015Z,99.90
2018-05-01T15:23:45.399Z,99.90
2018-05-01T15:26:13.090Z,99.90
2018-05-01T15:28:41.935Z,99.90
2018-05-01T15:31:10.841Z,99.90
2018-05-01T15:33:38.513Z,99.90
2018-05-01T15:36:06.161Z,99.90
2018-05-01T15:38:34.001Z,99.90
2018-05-01T15:41:02.589Z,99.90
2018-05-01T15:43:30.241Z,99.90
2018-05-01T15:45:57.899Z,99.90
2018-05-01T15:48:25.563Z,99.90
2018-05-01T15:50:53.345Z,99.90
2018-05-01T15:53:20.960Z,99.90
2018-05-01T15:55:49.519Z,99.90
2018-05-01T15:58:17.137Z,99.90
2018-05-01T16:00:44.776Z,99.90
2018-05-01T16:03:12.748Z,99.90
2018-05-01T16:05:40.544Z,99.90
2018-05-01T16:08:08.172Z,99.90
2018-05-01T16:10:35.855Z,99.90
2018-05-01T16:13:03.747Z,99.90
2018-05-01T16:15:32.099Z,99.90
2018-05-01T16:18:00.533Z,99.90
2018-05-01T16:20:28.154Z,99.90
2018-05-01T16:22:55.774Z,99.90
2018-05-01T16:25:24.528Z,99.90
2018-05-01T16:27:52.933Z,99.90
2018-05-01T16:30:20.567Z,99.90
2018-05-01T16:32:49.111Z,99.90
2018-05-01T16:35:16.733Z,99.90
2018-05-01T16:37:44.381Z,99.90
2018-05-01T16:40:12.079Z,99.90
2018-05-01T16:42:39.702Z,99.90
2018-05-01T16:45:07.402Z,99.90
2018-05-01T16:47:35.166Z,99.90
2018-05-01T16:50:03.698Z,99.90
2018-05-01T16:52:32.266Z,99.90
2018-05-01T16:55:00.000Z,99.90
2018-05-01T16:57:28.390Z,99.90
2018-05-01T16:59:56.769Z,99.90
2018-05-01T17:02:24.430Z,99.90
2018-05-01T17:04:52.071Z,99.90
2018-05-01T17:07:19.694Z,99.90
2018-05-01T17:09:48.142Z,99.90
2018-05-01T17:12:15.809Z,99.90
2018-05-01T17:14:43.539Z,99.90
2018-05-01T17:17:11.322Z,99.90
2018-05-01T17:19:39.802Z,99.90
2018-05-01T17:22:07.519Z,99.90
2018-05-01T17:24:35.229Z,99.90
2018-05-01T17:27:02.861Z,99.90
2018-05-01T17:29:30.545Z,99.90
2018-05-01T17:31:58.289Z,99.90
2018-05-01T17:34:26.820Z,99.90
2018-05-01T17:36:54.756Z,99.90
2018-05-01T17:39:23.195Z,99.90
2018-05-01T17:41:51.599Z,99.90
2018-05-01T17:44:19.224Z,99.90
2018-05-01T17:46:46.881Z,99.90
2018-05-01T17:49:15.332Z,99.90
2018-05-01T17:51:43.093Z,99.90
2018-05-01T17:54:10.779Z,99.90
2018-05-01T17:56:38.536Z,99.90
2018-05-01T17:59:06.177Z,99.90
2018-05-01T18:01:34.726Z,99.90
2018-05-01T18:04:02.363Z,99.90
2018-05-01T18:06:30.003Z,99.90
2018-05-01T18:08:57.706Z,99.90
2018-05-01T18:11:25.409Z,99.90
2018-05-01T18:13:53.051Z,99.90
2018-05-01T18:16:20.836Z,99.90
2018-05-01T18:18:49.041Z,99.90
2018-05-01T18:21:16.677Z,99.90
2018-05-01T18:23:45.135Z,99.90
2018-05-01T18:26:12.880Z,99.90
2018-05-01T18:28:40.764Z,99.90
2018-05-01T18:31:08.541Z,99.90
2018-05-01T18:33:37.062Z,99.90
2018-05-01T18:36:04.942Z,99.90
2018-05-01T18:38:32.614Z,99.90
2018-05-01T18:41:00.377Z,99.90
2018-05-01T18:43:27.998Z,99.90
2018-05-01T18:45:57.121Z,99.90
2018-05-01T18:48:25.229Z,99.90
2018-05-01T18:50:52.878Z,99.90
2018-05-01T18:53:20.585Z,99.90
2018-05-01T18:55:48.210Z,99.90
2018-05-01T18:58:16.615Z,99.90
2018-05-01T19:00:44.309Z,99.90
2018-05-01T19:03:11.935Z,99.90
2018-05-01T19:05:40.474Z,99.90
2018-05-01T19:08:08.158Z,99.90
2018-05-01T19:10:35.782Z,99.90
2018-05-01T19:13:05.094Z,99.90
2018-05-01T19:15:33.553Z,99.90
2018-05-01T19:18:01.189Z,99.90
2018-05-01T19:20:28.812Z,99.90
2018-05-01T19:22:56.853Z,99.90
2018-05-01T19:25:24.481Z,99.90
2018-05-01T19:27:52.927Z,99.90
2018-05-01T19:30:20.699Z,99.90
2018-05-01T19:32:48.779Z,99.90
2018-05-01T19:35:16.963Z,99.90
2018-05-01T19:37:44.770Z,99.90
2018-05-01T19:40:12.406Z,99.90
2018-05-01T19:42:40.816Z,99.90
2018-05-01T19:45:08.740Z,99.90
2018-05-01T19:47:36.431Z,99.90
2018-05-01T19:50:06.239Z,99.90
2018-05-01T19:52:33.987Z,99.90
2018-05-01T19:55:02.630Z,99.90
2018-05-01T19:57:30.259Z,99.90
2018-05-01T19:59:58.086Z,99.90
2018-05-01T20:02:25.738Z,99.90
2018-05-01T20:04:54.199Z,99.90
2018-05-01T20:07:21.882Z,99.90
2018-05-01T20:09:49.859Z,99.90
2018-05-01T20:12:17.484Z,99.90
2018-05-01T20:14:45.298Z,99.90
2018-05-01T20:17:12.958Z,99.90
2018-05-01T20:19:41.416Z,99.90
2018-05-01T20:22:09.114Z,99.90
2018-05-01T20:24:36.751Z,99.90
2018-05-01T20:27:05.594Z,99.90
2018-05-01T20:29:33.307Z,99.90
2018-05-01T20:32:00.940Z,99.90
2018-05-01T20:34:28.597Z,99.90
2018-05-01T20:36:56.311Z,99.90
2018-05-01T20:39:24.744Z,99.90
2018-05-01T20:41:53.138Z,99.90
2018-05-01T20:44:21.771Z,99.90
2018-05-01T20:46:50.159Z,99.90
2018-05-01T20:49:17.782Z,99.90
2018-05-01T20:51:45.449Z,99.90
2018-05-01T20:54:13.108Z,99.90
2018-05-01T20:56:40.735Z,99.90
2018-05-01T20:59:08.403Z,99.90
2018-05-01T21:01:37.584Z,99.90
2018-05-01T21:04:05.220Z,99.90
2018-05-01T21:06:32.888Z,99.90
2018-05-01T21:09:00.510Z,99.90
2018-05-01T21:11:28.891Z,99.90
2018-05-01T21:13:56.555Z,99.90
2018-05-01T21:16:24.175Z,99.90
2018-05-01T21:18:51.804Z,99.90
2018-05-01T21:21:19.467Z,99.90
2018-05-01T21:23:47.481Z,99.90
2018-05-01T21:26:15.870Z,99.90
2018-05-01T21:28:44.470Z,99.90
2018-05-01T21:31:12.079Z,99.90
2018-05-01T21:33:39.706Z,99.90
2018-05-01T21:36:08.135Z,99.90
2018-05-01T21:38:35.758Z,99.90
2018-05-01T21:41:03.384Z,99.90
2018-05-01T21:43:31.057Z,99.90
2018-05-01T21:45:58.733Z,99.90
2018-05-01T21:48:26.347Z,99.90
2018-05-01T21:50:54.183Z,99.90
2018-05-01T21:53:21.807Z,99.90
2018-05-01T21:55:49.430Z,99.90
2018-05-01T21:58:17.285Z,99.90
2018-05-01T22:00:44.897Z,99.90
2018-05-01T22:03:12.513Z,99.90
2018-05-01T22:05:41.021Z,99.90
2018-05-01T22:08:08.702Z,99.90
2018-05-01T22:10:37.238Z,99.90
2018-05-01T22:13:04.941Z,99.90
2018-05-01T22:15:32.658Z,99.90
2018-05-01T22:18:01.134Z,99.90
2018-05-01T22:20:28.801Z,99.90
2018-05-01T22:22:57.209Z,99.90
2018-05-01T22:25:24.821Z,99.90
2018-05-01T22:27:52.505Z,99.90
2018-05-01T22:30:20.226Z,99.90
2018-05-01T22:32:47.855Z,99.90
2018-05-01T22:35:15.586Z,99.90
2018-05-01T22:37:43.206Z,99.90
2018-05-01T22:40:10.834Z,99.90
2018-05-01T22:42:38.486Z,99.90
2018-05-01T22:45:06.179Z,99.90
2018-05-01T22:47:34.530Z,99.90
2018-05-01T22:50:02.969Z,99.90
2018-05-01T22:52:30.618Z,99.90
2018-05-01T22:54:58.237Z,99.90
2018-05-01T22:57:25.897Z,99.90
2018-05-01T22:59:53.515Z,99.90
2018-05-01T23:02:21.133Z,99.90
2018-05-01T23:04:48.818Z,99.90
2018-05-01T23:07:16.425Z,99.90
2018-05-01T23:09:44.033Z,99.90
2018-05-01T23:12:11.701Z,99.90
2018-05-01T23:14:39.319Z,99.90
2018-05-01T23:17:07.154Z,99.90
2018-05-01T23:19:34.821Z,99.90
2018-05-01T23:22:02.458Z,99.90
2018-05-01T23:24:30.068Z,99.90
2018-05-01T23:26:57.721Z,99.90
2018-05-01T23:29:26.098Z,99.90
2018-05-01T23:31:53.836Z,99.90
2018-05-01T23:34:21.683Z,99.90
2018-05-01T23:36:49.298Z,99.90
2018-05-01T23:39:16.905Z,99.90
2018-05-01T23:41:45.342Z,99.90
2018-05-01T23:44:12.970Z,99.90
2018-05-01T23:46:41.349Z,99.90
2018-05-01T23:49:09.010Z,99.90
2018-05-01T23:51:36.617Z,99.90
2018-05-01T23:54:04.995Z,99.90
2018-05-01T23:56:33.414Z,99.90
2018-05-01T23:59:01.021Z,99.90
